createdAt,value
2019-01-31T00:02:13.612Z,5.50
2019-01-31T00:05:07.793Z,5.60
2019-01-31T00:08:22.940Z,5.58
2019-01-31T00:11:26.350Z,5.80
2019-01-31T00:14:30.953Z,5.28
2019-01-31T00:17:26.505Z,5.25
2019-01-31T00:20:07.892Z,5.95
2019-01-31T00:23:16.287Z,5.80
2019-01-31T00:26:34.155Z,5.60
2019-01-31T00:29:27.919Z,6.45
2019-01-31T00:32:22.684Z,6.10
2019-01-31T00:35:26.485Z,5.65
2019-01-31T00:38:56.960Z,7.40
2019-01-31T00:41:44.817Z,19.65
2019-01-31T00:44:53.335Z,13.55
2019-01-31T00:47:49.561Z,8.90
2019-01-31T00:51:07.417Z,9.38
2019-01-31T00:54:07.978Z,7.55
2019-01-31T00:56:57.285Z,6.58
2019-01-31T00:59:57.895Z,6.50
2019-01-31T01:02:57.863Z,7.42
2019-01-31T01:06:32.457Z,7.67
2019-01-31T01:09:13.409Z,7.50
2019-01-31T01:11:56.606Z,6.87
2019-01-31T01:15:14.861Z,6.40
2019-01-31T01:17:52.294Z,6.42
2019-01-31T01:20:37.497Z,6.12
2019-01-31T01:23:50.248Z,6.35
2019-01-31T01:26:52.302Z,5.83
2019-01-31T01:29:55.600Z,7.05
2019-01-31T01:32:42.088Z,6.42
2019-01-31T01:35:42.582Z,5.72
2019-01-31T01:38:28.549Z,5.55
2019-01-31T01:41:25.301Z,6.87
2019-01-31T01:44:18.241Z,5.75
2019-01-31T01:47:22.949Z,5.45
2019-01-31T01:50:09.475Z,5.97
2019-01-31T01:52:58.341Z,6.12
2019-01-31T01:56:08.565Z,6.33
2019-01-31T01:58:51.225Z,6.17
2019-01-31T02:01:51.590Z,5.92
2019-01-31T02:04:39.365Z,6.10
2019-01-31T02:07:26.633Z,6.25
2019-01-31T02:10:40.290Z,6.70
2019-01-31T02:13:39.348Z,6.67
2019-01-31T02:16:32.643Z,6.25
2019-01-31T02:19:17.388Z,7.08
2019-01-31T02:22:02.898Z,7.28
2019-01-31T02:24:54.254Z,6.22
2019-01-31T02:27:36.254Z,7.65
2019-01-31T02:30:16.383Z,6.30
2019-01-31T02:33:29.676Z,5.90
2019-01-31T02:36:28.917Z,7.00
2019-01-31T02:39:42.389Z,6.78
2019-01-31T02:42:27.077Z,6.10
2019-01-31T02:46:01.405Z,6.03
2019-01-31T02:48:54.205Z,6.28
2019-01-31T02:51:57.790Z,7.60
2019-01-31T02:54:44.286Z,7.15
2019-01-31T02:57:48.401Z,7.22
2019-01-31T03:00:44.572Z,6.70
2019-01-31T03:03:38.425Z,6.78
2019-01-31T03:06:55.817Z,6.30
2019-01-31T03:09:38.341Z,4.83
2019-01-31T03:12:16.196Z,5.75
2019-01-31T03:15:09.756Z,5.58
2019-01-31T03:18:20.646Z,5.17
2019-01-31T03:21:05.761Z,5.75
2019-01-31T03:24:09.410Z,5.65
2019-01-31T03:27:04.629Z,4.83
2019-01-31T03:30:04.652Z,5.42
2019-01-31T03:33:11.600Z,4.85
2019-01-31T03:36:16.865Z,6.12
2019-01-31T03:38:55.845Z,4.90
2019-01-31T03:42:10.894Z,4.70
2019-01-31T03:45:01.145Z,5.50
2019-01-31T03:47:41.077Z,6.28
2019-01-31T03:50:20.670Z,5.03
2019-01-31T03:53:38.862Z,5.62
2019-01-31T03:56:43.828Z,5.35
2019-01-31T03:59:23.089Z,5.28
2019-01-31T04:02:43.922Z,6.35
2019-01-31T04:05:36.029Z,4.90
2019-01-31T04:08:04.995Z,6.58
2019-01-31T04:10:33.885Z,5.42
2019-01-31T04:13:02.701Z,6.17
2019-01-31T04:15:31.571Z,6.20
2019-01-31T04:18:00.393Z,5.83
2019-01-31T04:20:29.269Z,5.85
2019-01-31T04:22:58.320Z,5.80
2019-01-31T04:25:27.382Z,5.42
2019-01-31T04:27:56.236Z,5.90
2019-01-31T04:30:25.324Z,5.50
2019-01-31T04:32:54.120Z,6.00
2019-01-31T04:35:23.117Z,6.97
2019-01-31T04:37:51.908Z,6.25
2019-01-31T04:40:30.894Z,6.50
2019-01-31T04:42:51.613Z,5.58
2019-01-31T04:45:20.483Z,6.72
2019-01-31T04:47:49.597Z,6.55
2019-01-31T04:50:18.556Z,8.08
2019-01-31T04:52:47.664Z,7.75
2019-01-31T04:55:16.493Z,7.75
2019-01-31T04:57:45.294Z,9.30
2019-01-31T05:00:16.712Z,7.83
2019-01-31T05:02:46.722Z,8.68
2019-01-31T05:05:15.680Z,9.30
2019-01-31T05:07:44.922Z,8.70
2019-01-31T05:10:14.633Z,16.55
2019-01-31T05:12:43.616Z,9.00
2019-01-31T05:15:13.785Z,9.13
2019-01-31T05:17:42.662Z,10.70
2019-01-31T05:20:16.905Z,12.03
2019-01-31T05:22:45.794Z,7.80
2019-01-31T05:25:15.347Z,6.83
2019-01-31T05:27:44.230Z,7.62
2019-01-31T05:30:14.823Z,6.97
2019-01-31T05:32:44.022Z,7.70
2019-01-31T05:35:13.548Z,6.72
2019-01-31T05:37:42.370Z,6.40
2019-01-31T05:40:13.125Z,6.70
2019-01-31T05:42:41.950Z,6.50
2019-01-31T05:45:13.053Z,6.30
2019-01-31T05:47:42.115Z,7.10
2019-01-31T05:50:16.300Z,6.55
2019-01-31T05:52:45.257Z,6.80
2019-01-31T05:57:56.548Z,6.72
2019-01-31T06:00:29.314Z,6.67
2019-01-31T06:02:58.104Z,5.75
2019-01-31T06:05:27.188Z,5.92
2019-01-31T06:07:55.982Z,6.45
2019-01-31T06:10:24.867Z,5.92
2019-01-31T06:12:54.042Z,6.70
2019-01-31T06:15:23.156Z,5.20
2019-01-31T06:17:52.076Z,5.37
2019-01-31T06:20:23.848Z,5.62
2019-01-31T06:22:52.909Z,5.03
2019-01-31T06:25:22.092Z,5.30
2019-01-31T06:27:51.161Z,5.25
2019-01-31T06:30:20.229Z,5.10
2019-01-31T06:32:49.270Z,5.80
2019-01-31T06:35:18.217Z,5.28
2019-01-31T06:37:48.098Z,6.03
2019-01-31T06:40:18.694Z,5.60
2019-01-31T06:42:49.917Z,5.12
2019-01-31T06:45:20.133Z,5.90
2019-01-31T06:47:49.774Z,5.90
2019-01-31T06:50:18.657Z,5.05
2019-01-31T06:52:47.605Z,7.35
2019-01-31T06:55:16.917Z,6.25
2019-01-31T06:57:45.725Z,5.80
2019-01-31T07:00:17.847Z,5.83
2019-01-31T07:02:46.740Z,6.12
2019-01-31T07:05:15.700Z,5.42
2019-01-31T07:07:44.662Z,6.33
2019-01-31T07:10:22.417Z,6.17
2019-01-31T07:12:51.478Z,5.47
2019-01-31T07:15:20.299Z,6.78
2019-01-31T07:17:49.427Z,9.08
2019-01-31T07:20:18.400Z,8.45
2019-01-31T07:22:47.353Z,8.05
2019-01-31T07:25:21.218Z,9.38
2019-01-31T07:27:50.197Z,10.75
2019-01-31T07:30:19.405Z,23.12
2019-01-31T07:32:48.355Z,10.20
2019-01-31T07:35:17.513Z,21.97
2019-01-31T07:37:46.725Z,10.03
2019-01-31T07:40:17.545Z,7.87
2019-01-31T07:42:46.696Z,10.28
2019-01-31T07:45:18.896Z,8.03
2019-01-31T07:47:48.115Z,7.75
2019-01-31T07:50:17.312Z,6.33
2019-01-31T07:52:46.274Z,6.85
2019-01-31T07:55:15.159Z,6.75
2019-01-31T07:57:43.984Z,7.25
2019-01-31T08:00:14.513Z,7.75
2019-01-31T08:02:43.306Z,6.85
2019-01-31T08:05:15.447Z,7.70
2019-01-31T08:07:44.588Z,7.62
2019-01-31T08:10:16.373Z,7.67
2019-01-31T08:12:45.437Z,7.30
2019-01-31T08:15:15.513Z,7.40
2019-01-31T08:17:44.366Z,7.33
2019-01-31T08:20:15.045Z,6.67
2019-01-31T08:22:44.294Z,6.65
2019-01-31T08:25:22.947Z,6.47
2019-01-31T08:27:53.138Z,7.05
2019-01-31T08:30:24.691Z,7.05
2019-01-31T08:32:53.778Z,6.92
2019-01-31T08:35:26.211Z,6.47
2019-01-31T08:37:55.034Z,6.92
2019-01-31T08:40:26.452Z,7.65
2019-01-31T08:42:55.700Z,6.42
2019-01-31T08:52:22.251Z,6.55
2019-01-31T08:54:51.150Z,6.12
2019-01-31T08:57:20.318Z,6.42
2019-01-31T08:59:49.654Z,5.72
2019-01-31T09:02:18.527Z,6.37
2019-01-31T09:04:47.696Z,6.17
2019-01-31T09:07:16.540Z,5.55
2019-01-31T09:09:45.359Z,6.37
2019-01-31T09:12:15.468Z,5.75
2019-01-31T09:14:44.575Z,5.30
2019-01-31T09:17:13.687Z,6.08
2019-01-31T09:19:42.465Z,5.78
2019-01-31T09:22:32.276Z,5.08
2019-01-31T09:25:33.862Z,5.65
2019-01-31T09:28:32.287Z,4.70
2019-01-31T09:32:12.670Z,6.03
2019-01-31T09:35:21.187Z,5.22
2019-01-31T09:38:15.020Z,4.75
2019-01-31T09:41:11.477Z,5.25
2019-01-31T09:44:16.813Z,4.42
2019-01-31T09:47:03.894Z,4.08
2019-01-31T09:50:14.561Z,4.20
2019-01-31T09:53:03.286Z,3.50
2019-01-31T09:56:06.205Z,4.53
2019-01-31T09:59:11.468Z,4.40
2019-01-31T10:02:12.510Z,4.67
2019-01-31T10:05:07.070Z,4.63
2019-01-31T10:08:01.801Z,4.30
2019-01-31T10:11:02.326Z,4.90
2019-01-31T10:13:44.785Z,4.63
2019-01-31T10:19:39.095Z,4.67
2019-01-31T10:22:45.414Z,5.08
2019-01-31T10:25:40.165Z,5.15
2019-01-31T10:28:46.965Z,4.17
2019-01-31T10:31:55.141Z,5.20
2019-01-31T10:35:17.378Z,3.93
2019-01-31T10:38:31.283Z,4.57
2019-01-31T10:41:37.506Z,4.90
2019-01-31T10:44:40.869Z,4.13
2019-01-31T10:48:09.182Z,3.95
2019-01-31T10:51:13.674Z,4.65
2019-01-31T10:54:07.381Z,4.53
2019-01-31T10:57:01.132Z,4.12
2019-01-31T10:59:37.649Z,4.37
2019-01-31T11:02:41.956Z,4.00
2019-01-31T11:05:41.675Z,5.72
2019-01-31T11:08:37.908Z,4.42
2019-01-31T11:11:19.533Z,4.97
2019-01-31T11:14:23.904Z,5.05
2019-01-31T11:17:21.869Z,4.42
2019-01-31T11:20:10.604Z,6.10
2019-01-31T11:22:56.268Z,6.55
2019-01-31T11:25:47.670Z,4.80
2019-01-31T11:29:06.799Z,4.92
2019-01-31T11:32:18.910Z,3.37
2019-01-31T11:35:24.926Z,3.70
2019-01-31T11:38:15.990Z,3.42
2019-01-31T11:41:09.021Z,3.55
2019-01-31T11:44:25.741Z,4.00
2019-01-31T11:47:04.038Z,3.17
2019-01-31T11:50:10.753Z,2.77
2019-01-31T11:52:48.595Z,4.00
2019-01-31T11:55:26.736Z,3.55
2019-01-31T11:58:34.066Z,3.30
2019-01-31T12:01:04.833Z,3.47
2019-01-31T12:03:36.281Z,3.45
2019-01-31T12:06:05.602Z,4.08
2019-01-31T12:08:34.899Z,3.65
2019-01-31T12:11:03.900Z,3.10
2019-01-31T12:13:33.680Z,3.50
2019-01-31T12:16:02.702Z,3.92
2019-01-31T12:18:31.848Z,3.50
2019-01-31T12:21:00.694Z,3.80
2019-01-31T12:23:32.231Z,3.58
2019-01-31T12:26:00.379Z,3.55
2019-01-31T12:28:29.487Z,3.80
2019-01-31T12:30:58.590Z,4.10
2019-01-31T12:33:30.750Z,5.45
2019-01-31T12:35:58.372Z,4.50
2019-01-31T12:38:36.559Z,5.75
2019-01-31T12:40:57.977Z,3.85
2019-01-31T12:43:34.631Z,6.15
2019-01-31T12:45:57.285Z,4.20
2019-01-31T12:48:26.065Z,3.75
2019-01-31T12:50:54.906Z,3.95
2019-01-31T12:53:24.085Z,3.50
2019-01-31T12:55:52.860Z,3.25
2019-01-31T12:58:33.010Z,6.40
2019-01-31T13:00:52.533Z,4.65
2019-01-31T13:03:21.904Z,3.77
2019-01-31T13:05:50.741Z,3.75
2019-01-31T13:08:19.609Z,4.15
2019-01-31T13:10:48.412Z,10.65
2019-01-31T13:13:17.270Z,8.83
2019-01-31T13:15:46.125Z,4.92
2019-01-31T13:18:15.202Z,3.95
2019-01-31T13:20:44.057Z,9.23
2019-01-31T13:23:13.311Z,3.90
2019-01-31T13:25:42.362Z,4.30
2019-01-31T13:28:11.225Z,3.47
2019-01-31T13:30:40.148Z,4.08
2019-01-31T13:33:09.432Z,3.85
2019-01-31T13:35:38.197Z,4.05
2019-01-31T13:38:07.053Z,3.20
2019-01-31T13:40:36.239Z,3.70
2019-01-31T13:43:05.396Z,3.40
2019-01-31T13:45:36.568Z,3.85
2019-01-31T13:48:11.505Z,3.50
2019-01-31T13:50:40.531Z,3.47
2019-01-31T13:53:10.014Z,38.85
2019-01-31T13:55:39.484Z,5.60
2019-01-31T13:58:10.268Z,4.65
2019-01-31T14:00:39.469Z,4.17
2019-01-31T14:03:08.438Z,4.30
2019-01-31T14:05:37.544Z,3.37
2019-01-31T14:08:06.807Z,3.40
2019-01-31T14:10:37.440Z,5.65
2019-01-31T14:13:06.466Z,3.47
2019-01-31T14:15:36.201Z,4.00
2019-01-31T14:18:05.233Z,3.10
2019-01-31T14:20:34.261Z,4.95
2019-01-31T14:23:03.298Z,3.70
2019-01-31T14:25:32.390Z,3.40
2019-01-31T14:28:01.193Z,3.67
2019-01-31T14:30:35.020Z,3.30
2019-01-31T14:33:05.370Z,3.90
2019-01-31T14:35:34.458Z,3.90
2019-01-31T14:38:03.386Z,3.72
2019-01-31T14:40:32.507Z,4.85
2019-01-31T14:43:01.303Z,3.72
2019-01-31T14:45:30.325Z,3.45
2019-01-31T14:47:59.761Z,3.25
2019-01-31T14:50:30.762Z,2.70
2019-01-31T14:52:59.889Z,3.30
2019-01-31T14:55:29.062Z,3.80
2019-01-31T14:57:58.037Z,3.42
2019-01-31T15:00:28.785Z,3.30
2019-01-31T15:02:57.700Z,3.10
2019-01-31T15:05:26.624Z,3.15
2019-01-31T15:07:55.477Z,3.20
2019-01-31T15:10:26.177Z,3.25
2019-01-31T15:12:57.423Z,3.90
2019-01-31T15:15:26.970Z,3.60
2019-01-31T15:17:56.077Z,3.98
2019-01-31T15:20:37.493Z,3.75
2019-01-31T15:23:00.964Z,4.42
2019-01-31T15:25:29.887Z,4.67
2019-01-31T15:27:58.738Z,5.05
2019-01-31T15:30:30.229Z,4.40
2019-01-31T15:33:00.668Z,4.97
2019-01-31T15:35:29.610Z,4.90
2019-01-31T15:37:58.401Z,5.47
2019-01-31T15:40:31.038Z,5.62
2019-01-31T15:43:01.204Z,5.72
2019-01-31T15:45:30.137Z,5.12
2019-01-31T15:47:59.752Z,5.78
2019-01-31T15:50:28.799Z,5.30
2019-01-31T15:52:57.821Z,5.80
2019-01-31T15:55:26.914Z,12.35
2019-01-31T15:57:56.081Z,13.80
2019-01-31T16:00:37.461Z,18.65
2019-01-31T16:03:07.193Z,9.10
2019-01-31T16:05:36.388Z,7.03
2019-01-31T16:08:05.910Z,6.60
2019-01-31T16:10:34.865Z,8.08
2019-01-31T16:13:04.107Z,12.53
2019-01-31T16:15:33.044Z,8.58
2019-01-31T16:18:01.971Z,7.28
2019-01-31T16:20:31.094Z,6.90
2019-01-31T16:23:00.278Z,8.03
2019-01-31T16:25:29.145Z,8.08
2019-01-31T16:27:58.326Z,8.53
2019-01-31T16:30:27.350Z,8.88
2019-01-31T16:32:56.438Z,7.97
2019-01-31T16:35:25.634Z,8.03
2019-01-31T16:37:54.549Z,8.40
2019-01-31T16:40:23.644Z,6.97
2019-01-31T16:42:52.609Z,7.92
2019-01-31T16:45:21.733Z,12.78
2019-01-31T16:47:50.664Z,12.73
2019-01-31T16:50:19.600Z,15.32
2019-01-31T16:52:48.464Z,11.08
2019-01-31T16:55:18.989Z,10.50
2019-01-31T16:57:48.125Z,10.40
2019-01-31T17:00:20.774Z,12.18
2019-01-31T17:02:49.704Z,12.25
2019-01-31T17:05:20.755Z,14.10
2019-01-31T17:07:49.706Z,11.50
2019-01-31T17:10:18.839Z,19.17
2019-01-31T17:12:47.778Z,19.32
2019-01-31T17:15:18.125Z,19.80
2019-01-31T17:17:47.613Z,17.37
2019-01-31T17:20:37.649Z,22.13
2019-01-31T17:23:06.658Z,20.62
2019-01-31T17:25:35.775Z,22.32
2019-01-31T17:28:05.112Z,22.02
2019-01-31T17:30:34.228Z,18.30
2019-01-31T17:33:03.079Z,18.73
2019-01-31T17:35:31.889Z,13.85
2019-01-31T17:38:00.997Z,12.73
2019-01-31T17:40:32.433Z,10.55
2019-01-31T17:43:01.549Z,10.38
2019-01-31T17:45:31.084Z,13.10
2019-01-31T17:48:00.166Z,23.80
2019-01-31T17:50:29.129Z,34.70
2019-01-31T17:52:58.326Z,19.95
2019-01-31T17:55:27.791Z,17.00
2019-01-31T17:57:56.729Z,23.35
2019-01-31T18:00:46.886Z,34.10
2019-01-31T18:03:15.733Z,19.67
2019-01-31T18:05:44.734Z,21.65
2019-01-31T18:08:13.518Z,23.38
2019-01-31T18:10:42.652Z,21.50
2019-01-31T18:13:11.514Z,17.67
2019-01-31T18:15:42.552Z,9.78
2019-01-31T18:18:11.404Z,11.10
2019-01-31T18:20:40.680Z,10.15
2019-01-31T18:23:09.686Z,12.82
2019-01-31T18:25:38.554Z,15.32
2019-01-31T18:28:07.415Z,12.95
2019-01-31T18:30:36.674Z,13.45
2019-01-31T18:33:05.887Z,11.10
2019-01-31T18:35:34.778Z,10.65
2019-01-31T18:38:03.678Z,9.38
2019-01-31T18:40:32.797Z,9.35
2019-01-31T18:43:01.749Z,11.93
2019-01-31T18:45:31.648Z,19.55
2019-01-31T18:48:01.207Z,12.50
2019-01-31T18:50:35.180Z,17.48
2019-01-31T18:53:04.225Z,12.53
2019-01-31T18:55:33.330Z,19.87
2019-01-31T18:58:02.197Z,13.05
2019-01-31T19:00:36.485Z,15.35
2019-01-31T19:03:06.000Z,15.63
2019-01-31T19:05:34.913Z,15.25
2019-01-31T19:08:08.662Z,14.55
2019-01-31T19:10:42.790Z,14.55
2019-01-31T19:13:06.129Z,12.05
2019-01-31T19:15:35.386Z,12.23
2019-01-31T19:18:05.922Z,12.10
2019-01-31T19:20:36.573Z,11.57
2019-01-31T19:23:07.841Z,11.65
2019-01-31T19:25:36.788Z,10.50
2019-01-31T19:28:07.098Z,12.55
2019-01-31T19:30:37.984Z,11.80
2019-01-31T19:33:07.485Z,10.98
2019-01-31T19:35:39.670Z,11.88
2019-01-31T19:38:09.478Z,12.33
2019-01-31T19:40:41.314Z,13.20
2019-01-31T19:43:10.270Z,15.55
2019-01-31T19:45:41.425Z,13.98
2019-01-31T19:48:10.650Z,16.80
2019-01-31T19:50:39.607Z,16.32
2019-01-31T19:53:08.542Z,14.87
2019-01-31T19:55:37.569Z,14.93
2019-01-31T19:58:06.714Z,16.82
2019-01-31T20:00:35.625Z,14.47
2019-01-31T20:03:05.155Z,13.85
2019-01-31T20:05:34.073Z,13.90
2019-01-31T20:08:02.949Z,12.53
2019-01-31T20:10:32.359Z,12.65
2019-01-31T20:13:01.406Z,12.95
2019-01-31T20:15:30.529Z,12.78
2019-01-31T20:17:59.704Z,13.15
2019-01-31T20:20:28.985Z,13.08
2019-01-31T20:22:58.775Z,11.83
2019-01-31T20:25:28.916Z,12.70
2019-01-31T20:27:58.008Z,13.48
2019-01-31T20:30:29.037Z,11.45
2019-01-31T20:32:58.969Z,11.33
2019-01-31T20:35:28.073Z,13.48
2019-01-31T20:37:56.931Z,11.70
2019-01-31T20:40:28.113Z,11.28
2019-01-31T20:42:57.627Z,13.43
2019-01-31T20:45:27.046Z,11.60
2019-01-31T20:47:56.097Z,15.63
2019-01-31T20:50:30.030Z,13.05
2019-01-31T20:52:59.565Z,13.48
2019-01-31T20:55:28.593Z,12.00
2019-01-31T20:57:57.754Z,11.43
2019-01-31T21:00:34.281Z,11.80
2019-01-31T21:03:06.342Z,11.80
2019-01-31T21:05:35.478Z,12.18
2019-01-31T21:08:04.925Z,12.03
2019-01-31T21:10:34.216Z,11.38
2019-01-31T21:13:03.257Z,11.63
2019-01-31T21:15:32.465Z,12.10
2019-01-31T21:18:01.363Z,11.95
2019-01-31T21:20:30.303Z,12.35
2019-01-31T21:22:59.353Z,12.15
2019-01-31T21:25:28.705Z,15.00
2019-01-31T21:27:57.725Z,17.40
2019-01-31T21:30:28.985Z,18.62
2019-01-31T21:32:57.906Z,15.20
2019-01-31T21:35:27.918Z,14.40
2019-01-31T21:37:57.115Z,11.93
2019-01-31T21:40:26.576Z,12.55
2019-01-31T21:42:55.676Z,11.75
2019-01-31T21:45:24.753Z,11.93
2019-01-31T21:47:53.536Z,10.98
2019-01-31T21:50:22.952Z,10.75
2019-01-31T21:52:52.054Z,11.57
2019-01-31T21:55:21.089Z,11.50
2019-01-31T21:57:50.043Z,11.63
2019-01-31T22:00:21.618Z,12.88
2019-01-31T22:02:50.482Z,10.65
2019-01-31T22:05:19.521Z,10.75
2019-01-31T22:07:48.551Z,10.48
2019-01-31T22:10:18.448Z,9.63
2019-01-31T22:12:47.695Z,9.95
2019-01-31T22:15:22.549Z,10.25
2019-01-31T22:17:51.426Z,11.03
2019-01-31T22:20:20.477Z,9.83
2019-01-31T22:22:49.409Z,9.70
2019-01-31T22:25:20.126Z,10.68
2019-01-31T22:27:49.161Z,11.80
2019-01-31T22:30:29.686Z,11.95
2019-01-31T22:32:58.820Z,13.75
2019-01-31T22:35:27.938Z,11.25
2019-01-31T22:37:56.807Z,11.45
2019-01-31T22:40:25.756Z,16.05
2019-01-31T22:42:54.613Z,15.03
2019-01-31T22:45:23.583Z,10.65
2019-01-31T22:47:52.618Z,11.30
2019-01-31T22:50:22.466Z,11.30
2019-01-31T22:52:51.408Z,12.45
2019-01-31T22:55:21.672Z,11.33
2019-01-31T22:57:50.530Z,12.25
2019-01-31T23:00:59.728Z,12.10
2019-01-31T23:03:28.920Z,12.20
2019-01-31T23:05:57.718Z,12.50
2019-01-31T23:08:26.500Z,12.20
2019-01-31T23:10:55.406Z,12.95
2019-01-31T23:13:24.276Z,12.05
2019-01-31T23:15:53.154Z,12.37
2019-01-31T23:18:21.938Z,11.83
2019-01-31T23:20:50.817Z,13.15
2019-01-31T23:23:19.845Z,13.20
2019-01-31T23:25:48.785Z,12.28
2019-01-31T23:28:17.652Z,12.33
2019-01-31T23:30:46.448Z,11.10
2019-01-31T23:33:15.293Z,11.60
2019-01-31T23:35:44.172Z,10.70
2019-01-31T23:38:13.345Z,10.58
2019-01-31T23:40:42.148Z,11.60
2019-01-31T23:43:10.921Z,11.48
2019-01-31T23:45:39.723Z,10.88
2019-01-31T23:48:08.640Z,10.40
2019-01-31T23:50:37.521Z,10.32
2019-01-31T23:53:06.466Z,9.80
2019-01-31T23:55:35.550Z,10.05
2019-01-31T23:58:04.734Z,9.70
